Alanreed, Texas
Current Conditions -  °F | °C
As of 2:15 AM on Thursday 27 Nov 2014 (Local Time) from KPPA Reporting Station
Clear Clear  
Wind Chill: 20°   Ceiling: Unl
Heat Index: 28°   Visibility: 10mi
Dew Point: 18°   Wind: 8mph
Humidity: 67%   Direction: 140°SE
Pressure: 30.43"   Gusts: NA
Location:  35.21°N, 100.74°W
Report Text: KPPA 270815Z AUTO 14007KT 10SM CLR M02/M08 A3043 RMK AO2 T10241078 PNO
Loading
Personal Weather Stations






























Interactive Weather Map New forecast layout! Learn more

10-Day Weather Forecast

Advertisements
Track Severe Weather on mobile